createdAt,value
2022-12-06T00:02:15.319Z,102136.44
2022-12-06T00:04:42.472Z,102139.22
2022-12-06T00:07:11.574Z,102131.31
2022-12-06T00:09:38.801Z,102124.00
2022-12-06T00:12:06.036Z,102123.19
2022-12-06T00:14:32.905Z,102131.09
2022-12-06T00:16:59.995Z,102122.28
2022-12-06T00:19:27.154Z,102124.75
2022-12-06T00:21:54.767Z,102117.06
2022-12-06T00:24:22.947Z,102116.56
2022-12-06T00:26:51.273Z,102130.25
2022-12-06T00:29:21.549Z,102127.25
2022-12-06T00:31:49.515Z,102120.47
2022-12-06T00:34:16.668Z,102127.31
2022-12-06T00:36:43.694Z,102127.00
2022-12-06T00:39:13.543Z,102121.31
2022-12-06T00:41:41.672Z,102112.00
2022-12-06T00:44:09.029Z,102113.06
2022-12-06T00:46:37.081Z,102110.34
2022-12-06T00:49:05.902Z,102108.94
2022-12-06T00:51:34.319Z,102111.38
2022-12-06T00:54:02.339Z,102105.66
2022-12-06T00:56:29.804Z,102105.97
2022-12-06T00:58:57.116Z,102104.56
2022-12-06T01:01:26.670Z,102109.22
2022-12-06T01:03:57.344Z,102109.13
2022-12-06T01:06:28.207Z,102114.91
2022-12-06T01:08:56.512Z,102103.16
2022-12-06T01:11:24.429Z,102106.72
2022-12-06T01:13:52.526Z,102108.38
2022-12-06T01:16:22.317Z,102113.06
2022-12-06T01:18:57.435Z,102108.34
2022-12-06T01:21:25.939Z,102103.91
2022-12-06T01:23:54.414Z,102110.50
2022-12-06T01:26:27.455Z,102111.09
2022-12-06T01:28:54.786Z,102109.44
2022-12-06T01:31:21.801Z,102101.25
2022-12-06T01:33:48.806Z,102112.69
2022-12-06T01:36:26.305Z,102109.97
2022-12-06T01:38:58.182Z,102108.28
2022-12-06T01:41:26.946Z,102110.50
2022-12-06T01:43:54.880Z,102100.66
2022-12-06T01:46:57.049Z,102102.56
2022-12-06T01:49:31.404Z,102106.63
2022-12-06T01:52:02.801Z,102099.84
2022-12-06T01:54:30.075Z,102096.00
2022-12-06T01:56:59.127Z,102089.22
2022-12-06T01:59:27.598Z,102087.25
2022-12-06T02:01:56.034Z,102090.00
2022-12-06T02:04:24.259Z,102084.91
2022-12-06T02:06:54.142Z,102074.69
2022-12-06T02:09:22.594Z,102072.28
2022-12-06T02:11:49.452Z,102069.31
2022-12-06T02:14:23.431Z,102070.28
2022-12-06T02:17:18.141Z,102073.88
2022-12-06T02:20:14.028Z,102071.94
2022-12-06T02:22:55.924Z,102071.06
2022-12-06T02:26:00.912Z,102068.56
2022-12-06T02:28:49.684Z,102063.16
2022-12-06T02:31:16.613Z,102066.25
2022-12-06T02:33:51.702Z,102069.31
2022-12-06T02:36:32.654Z,102067.16
2022-12-06T02:39:11.149Z,102068.28
2022-12-06T02:41:44.877Z,102070.44
2022-12-06T02:44:51.326Z,102063.03
2022-12-06T02:47:21.847Z,102063.09
2022-12-06T02:49:54.797Z,102056.94
2022-12-06T02:52:26.260Z,102056.75
2022-12-06T02:54:57.160Z,102062.56
2022-12-06T02:57:35.698Z,102061.16
2022-12-06T03:00:02.878Z,102056.78
2022-12-06T03:02:32.563Z,102056.78
2022-12-06T03:05:16.015Z,102065.22
2022-12-06T03:07:47.670Z,102063.31
2022-12-06T03:10:36.268Z,102062.44
2022-12-06T03:13:16.542Z,102066.56
2022-12-06T03:15:59.221Z,102061.72
2022-12-06T03:18:37.653Z,102063.41
2022-12-06T03:21:18.471Z,102064.53
2022-12-06T03:23:48.143Z,102062.31
2022-12-06T03:26:19.737Z,102064.72
2022-12-06T03:28:49.421Z,102066.38
2022-12-06T03:31:16.651Z,102064.13
2022-12-06T03:34:01.697Z,102063.81
2022-12-06T03:36:29.972Z,102054.22
2022-12-06T03:39:05.933Z,102057.69
2022-12-06T03:41:38.229Z,102048.91
2022-12-06T03:44:05.337Z,102049.50
2022-12-06T03:46:39.163Z,102043.47
2022-12-06T03:49:12.158Z,102042.34
2022-12-06T03:51:41.388Z,102043.41
2022-12-06T03:54:08.890Z,102039.56
2022-12-06T03:56:38.061Z,102037.88
2022-12-06T03:59:09.062Z,102039.75
2022-12-06T04:01:36.991Z,102039.16
2022-12-06T04:04:04.164Z,102035.34
2022-12-06T04:06:31.406Z,102034.22
2022-12-06T04:09:18.112Z,102027.94
2022-12-06T04:11:45.092Z,102039.41
2022-12-06T04:14:11.897Z,102028.47
2022-12-06T04:16:57.363Z,102030.91
2022-12-06T04:19:24.326Z,102025.97
2022-12-06T04:22:09.792Z,102033.88
2022-12-06T04:24:36.934Z,102030.31
2022-12-06T04:27:22.237Z,102025.75
2022-12-06T04:30:07.671Z,102031.25
2022-12-06T04:32:53.251Z,102028.22
2022-12-06T04:35:38.607Z,102023.63
2022-12-06T04:38:24.210Z,102028.75
2022-12-06T04:40:50.984Z,102026.25
2022-12-06T04:43:36.754Z,102022.66
2022-12-06T04:46:03.792Z,102013.34
2022-12-06T04:48:30.605Z,102014.16
2022-12-06T04:50:57.535Z,102014.47
2022-12-06T04:53:24.450Z,102007.13
2022-12-06T04:55:52.002Z,102018.06
2022-12-06T04:58:19.269Z,102007.63
2022-12-06T05:00:46.178Z,102005.22
2022-12-06T05:03:14.488Z,102017.69
2022-12-06T05:05:42.403Z,102002.63
2022-12-06T05:08:10.934Z,101997.47
2022-12-06T05:10:37.886Z,102011.34
2022-12-06T05:13:05.969Z,102005.94
2022-12-06T05:15:34.083Z,102000.03
2022-12-06T05:18:00.853Z,102006.72
2022-12-06T05:20:27.701Z,101997.88
2022-12-06T05:22:54.524Z,101999.44
2022-12-06T05:25:21.503Z,102001.81
2022-12-06T05:27:48.589Z,102004.06
2022-12-06T05:30:15.478Z,102001.97
2022-12-06T05:32:42.481Z,102000.66
2022-12-06T05:35:09.708Z,102001.78
2022-12-06T05:37:36.890Z,101997.28
2022-12-06T05:40:04.176Z,101996.38
2022-12-06T05:42:31.052Z,101992.41
2022-12-06T05:44:57.874Z,101995.50
2022-12-06T05:47:24.853Z,101993.69
2022-12-06T05:49:51.780Z,101989.94
2022-12-06T05:52:18.646Z,101984.28
2022-12-06T05:54:45.459Z,101985.38
2022-12-06T05:57:12.447Z,101983.53
2022-12-06T05:59:39.263Z,101985.72
2022-12-06T06:02:06.137Z,101989.28
2022-12-06T06:04:33.145Z,101981.16
2022-12-06T06:07:00.164Z,101980.06
2022-12-06T06:09:27.547Z,101987.16
2022-12-06T06:11:56.143Z,101986.91
2022-12-06T06:14:23.114Z,101984.75
2022-12-06T06:16:50.433Z,101980.13
2022-12-06T06:19:17.460Z,101980.41
2022-12-06T06:21:44.355Z,101985.03
2022-12-06T06:24:11.092Z,101980.41
2022-12-06T06:26:37.926Z,101986.69
2022-12-06T06:29:04.670Z,101986.41
2022-12-06T06:31:31.490Z,101986.63
2022-12-06T06:33:58.491Z,101995.31
2022-12-06T06:36:25.404Z,101987.13
2022-12-06T06:38:52.193Z,101984.41
2022-12-06T06:41:19.143Z,101981.66
2022-12-06T06:43:46.029Z,101989.28
2022-12-06T06:46:12.862Z,101977.88
2022-12-06T06:48:39.794Z,101979.50
2022-12-06T06:51:09.818Z,101972.47
2022-12-06T06:53:37.737Z,101980.38
2022-12-06T06:56:05.851Z,101980.66
2022-12-06T06:58:32.845Z,101981.75
2022-12-06T07:01:03.768Z,101978.22
2022-12-06T07:03:30.888Z,101978.72
2022-12-06T07:06:03.540Z,101986.31
2022-12-06T07:08:31.761Z,101984.13
2022-12-06T07:10:59.149Z,101983.28
2022-12-06T07:13:27.517Z,101986.53
2022-12-06T07:15:54.335Z,101991.44
2022-12-06T07:18:21.387Z,101988.94
2022-12-06T07:20:49.103Z,101979.66
2022-12-06T07:23:16.426Z,101978.81
2022-12-06T07:25:43.348Z,101979.31
2022-12-06T07:28:10.097Z,101983.38
2022-12-06T07:30:37.124Z,101975.25
2022-12-06T07:33:04.000Z,101986.97
2022-12-06T07:35:55.420Z,101992.66
2022-12-06T07:38:17.597Z,101983.66
2022-12-06T07:43:49.635Z,101982.81
2022-12-06T07:46:16.483Z,101979.28
2022-12-06T07:48:43.471Z,101973.56
2022-12-06T07:51:10.372Z,101976.31
2022-12-06T07:53:37.134Z,101979.06
2022-12-06T07:56:08.397Z,101983.66
2022-12-06T07:58:35.519Z,101982.53
2022-12-06T08:01:05.952Z,101988.47
2022-12-06T08:03:32.925Z,101981.91
2022-12-06T08:05:59.847Z,101983.22
2022-12-06T08:08:28.883Z,101979.66
2022-12-06T08:11:00.425Z,101976.38
2022-12-06T08:13:28.247Z,101971.94
2022-12-06T08:15:55.234Z,101974.09
2022-12-06T08:18:22.412Z,101975.13
2022-12-06T08:20:49.285Z,101976.72
2022-12-06T08:23:16.102Z,101976.41
2022-12-06T08:25:43.025Z,101975.84
2022-12-06T08:28:09.818Z,101966.81
2022-12-06T08:30:40.341Z,101967.97
2022-12-06T08:33:07.271Z,101964.16
2022-12-06T08:35:37.525Z,101968.78
2022-12-06T08:38:04.409Z,101964.66
2022-12-06T08:40:31.528Z,101961.69
2022-12-06T08:42:58.293Z,101968.22
2022-12-06T08:45:25.101Z,101961.88
2022-12-06T08:47:52.130Z,101959.06
2022-12-06T08:50:19.062Z,101959.53
2022-12-06T08:52:45.842Z,101969.53
2022-12-06T08:55:12.682Z,101970.03
2022-12-06T08:57:39.464Z,101971.13
2022-12-06T09:00:07.612Z,101965.34
2022-12-06T09:02:34.588Z,101963.59
2022-12-06T09:05:01.371Z,101963.94
2022-12-06T09:07:28.364Z,101961.94
2022-12-06T09:09:55.605Z,101953.59
2022-12-06T09:12:22.971Z,101956.00
2022-12-06T09:14:50.012Z,101950.75
2022-12-06T09:17:17.228Z,101956.47
2022-12-06T09:19:44.107Z,101948.78
2022-12-06T09:22:10.931Z,101951.66
2022-12-06T09:24:38.024Z,101941.19
2022-12-06T09:27:04.786Z,101947.41
2022-12-06T09:29:34.862Z,101953.59
2022-12-06T09:32:04.603Z,101959.00
2022-12-06T09:34:31.542Z,101965.22
2022-12-06T09:37:03.515Z,101963.50
2022-12-06T09:39:34.882Z,101956.78
2022-12-06T09:42:07.811Z,101967.56
2022-12-06T09:44:59.750Z,101967.06
2022-12-06T09:48:06.693Z,101965.00
2022-12-06T09:50:33.594Z,101964.47
2022-12-06T09:53:25.092Z,101971.78
2022-12-06T09:56:26.055Z,101968.47
2022-12-06T09:59:13.059Z,101964.22
2022-12-06T10:01:52.202Z,101966.59
2022-12-06T10:04:30.853Z,101966.44
2022-12-06T10:07:11.922Z,101965.53
2022-12-06T10:10:04.898Z,101959.47
2022-12-06T10:12:55.554Z,101955.97
2022-12-06T10:15:43.797Z,101953.59
2022-12-06T10:18:28.771Z,101950.78
2022-12-06T10:21:01.292Z,101951.28
2022-12-06T10:23:44.782Z,101950.66
2022-12-06T10:26:17.240Z,101949.28
2022-12-06T10:28:45.884Z,101942.88
2022-12-06T10:31:34.439Z,101932.16
2022-12-06T10:34:14.595Z,101942.00
2022-12-06T10:36:55.273Z,101947.38
2022-12-06T10:39:31.709Z,101935.91
2022-12-06T10:42:18.977Z,101932.75
2022-12-06T10:44:55.392Z,101933.69
2022-12-06T10:47:29.276Z,101924.25
2022-12-06T10:50:04.810Z,101931.78
2022-12-06T10:52:57.269Z,101926.06
2022-12-06T10:55:36.745Z,101923.00
2022-12-06T10:58:25.947Z,101927.53
2022-12-06T11:00:59.131Z,101926.09
2022-12-06T11:03:38.211Z,101926.59
2022-12-06T11:06:22.451Z,101922.97
2022-12-06T11:09:05.913Z,101913.50
2022-12-06T11:11:36.969Z,101918.06
2022-12-06T11:14:11.786Z,101910.34
2022-12-06T11:16:44.966Z,101907.28
2022-12-06T11:19:33.622Z,101901.63
2022-12-06T11:22:34.231Z,101905.66
2022-12-06T11:25:19.989Z,101899.56
2022-12-06T11:27:56.497Z,101904.28
2022-12-06T11:30:23.476Z,101901.13
2022-12-06T11:32:52.347Z,101900.63
2022-12-06T11:35:23.238Z,101895.03
2022-12-06T11:37:56.411Z,101890.97
2022-12-06T11:40:33.125Z,101892.41
2022-12-06T11:43:02.664Z,101889.47
2022-12-06T11:45:33.390Z,101889.47
2022-12-06T11:48:11.269Z,101892.22
2022-12-06T11:50:38.089Z,101890.66
2022-12-06T11:53:28.424Z,101881.44
2022-12-06T11:56:00.342Z,101876.13
2022-12-06T11:58:37.683Z,101881.16
2022-12-06T12:01:11.008Z,101878.75
2022-12-06T12:03:41.154Z,101880.06
2022-12-06T12:06:27.259Z,101871.16
2022-12-06T12:09:00.549Z,101870.47
2022-12-06T12:11:42.338Z,101871.50
2022-12-06T12:14:18.524Z,101858.72
2022-12-06T12:16:49.261Z,101861.41
2022-12-06T12:19:39.259Z,101859.97
2022-12-06T12:22:33.769Z,101854.06
2022-12-06T12:25:18.588Z,101846.56
2022-12-06T12:27:49.129Z,101849.25
2022-12-06T12:30:20.717Z,101847.63
2022-12-06T12:32:50.531Z,101849.38
2022-12-06T12:35:20.353Z,101846.47
2022-12-06T12:37:54.818Z,101841.06
2022-12-06T12:40:36.532Z,101824.69
2022-12-06T12:43:07.521Z,101829.94
2022-12-06T12:45:34.597Z,101823.69
2022-12-06T12:48:04.370Z,101823.63
2022-12-06T12:50:32.810Z,101819.88
2022-12-06T12:53:00.637Z,101828.38
2022-12-06T12:55:27.686Z,101828.38
2022-12-06T12:57:58.053Z,101822.69
2022-12-06T13:00:47.906Z,101816.94
2022-12-06T13:06:23.680Z,101808.47
2022-12-06T13:08:50.970Z,101814.06
2022-12-06T13:11:17.787Z,101807.28
2022-12-06T13:13:49.327Z,101806.78
2022-12-06T13:16:23.152Z,101807.28
2022-12-06T13:18:56.512Z,101802.66
2022-12-06T13:21:39.662Z,101801.41
2022-12-06T13:24:17.720Z,101796.28
2022-12-06T13:26:48.354Z,101804.34
2022-12-06T13:29:27.338Z,101807.13
2022-12-06T13:31:58.225Z,101802.28
2022-12-06T13:34:37.380Z,101804.38
2022-12-06T13:37:36.045Z,101802.09
2022-12-06T13:40:05.292Z,101801.75
2022-12-06T13:42:38.714Z,101799.75
2022-12-06T13:45:26.766Z,101789.88
2022-12-06T13:47:53.748Z,101802.91
2022-12-06T13:50:20.627Z,101794.97
2022-12-06T13:52:47.422Z,101801.41
2022-12-06T13:55:26.504Z,101789.34
2022-12-06T13:58:16.383Z,101794.16
2022-12-06T14:00:43.489Z,101789.91
2022-12-06T14:03:13.376Z,101780.38
2022-12-06T14:06:09.091Z,101787.41
2022-12-06T14:08:46.981Z,101777.25
2022-12-06T14:11:17.339Z,101782.56
2022-12-06T14:13:58.631Z,101782.75
2022-12-06T14:16:36.855Z,101776.44
2022-12-06T14:19:12.252Z,101775.47
2022-12-06T14:21:42.925Z,101781.88
2022-12-06T14:24:25.283Z,101773.78
2022-12-06T14:26:52.249Z,101772.50
2022-12-06T14:29:24.775Z,101776.78
2022-12-06T14:31:52.146Z,101765.44
2022-12-06T14:34:31.292Z,101763.34
2022-12-06T14:37:00.539Z,101773.47
2022-12-06T14:39:31.194Z,101769.09
2022-12-06T14:42:23.370Z,101768.63
2022-12-06T14:44:57.382Z,101750.34
2022-12-06T14:47:29.173Z,101753.03
2022-12-06T14:50:17.798Z,101742.69
2022-12-06T14:52:57.732Z,101741.38
2022-12-06T14:55:24.968Z,101745.03
2022-12-06T14:57:58.354Z,101741.00
2022-12-06T15:00:38.215Z,101733.59
2022-12-06T15:03:08.126Z,101747.00
2022-12-06T15:05:41.142Z,101740.50
2022-12-06T15:08:26.224Z,101743.25
2022-12-06T15:10:59.301Z,101742.75
2022-12-06T15:13:26.685Z,101734.81
2022-12-06T15:16:08.726Z,101735.34
2022-12-06T15:18:39.773Z,101730.66
2022-12-06T15:21:12.357Z,101732.09
2022-12-06T15:23:53.363Z,101727.84
2022-12-06T15:26:22.404Z,101720.56
2022-12-06T15:28:50.329Z,101704.84
2022-12-06T15:31:23.663Z,101701.75
2022-12-06T15:33:50.602Z,101705.72
2022-12-06T15:36:22.679Z,101709.16
2022-12-06T15:38:50.214Z,101703.00
2022-12-06T15:41:20.023Z,101711.94
2022-12-06T15:43:49.579Z,101714.25
2022-12-06T15:46:24.094Z,101706.75
2022-12-06T15:48:51.897Z,101718.72
2022-12-06T15:51:24.943Z,101718.81
2022-12-06T15:53:53.117Z,101706.84
2022-12-06T15:56:24.495Z,101709.22
2022-12-06T15:58:51.757Z,101709.91
2022-12-06T16:01:27.561Z,101699.47
2022-12-06T16:03:56.507Z,101705.03
2022-12-06T16:06:26.008Z,101703.63
2022-12-06T16:08:53.524Z,101697.66
2022-12-06T16:11:24.010Z,101696.22
2022-12-06T16:13:51.609Z,101687.31
2022-12-06T16:16:20.484Z,101690.22
2022-12-06T16:18:48.499Z,101693.34
2022-12-06T16:21:26.759Z,101707.84
2022-12-06T16:24:14.893Z,101697.50
2022-12-06T16:26:44.481Z,101696.88
2022-12-06T16:29:19.118Z,101692.22
2022-12-06T16:31:46.998Z,101707.41
2022-12-06T16:34:14.859Z,101699.53
2022-12-06T16:37:02.920Z,101709.88
2022-12-06T16:39:33.543Z,101699.84
2022-12-06T16:42:01.499Z,101707.56
2022-12-06T16:44:28.472Z,101706.13
2022-12-06T16:46:55.574Z,101710.91
2022-12-06T16:52:15.957Z,101712.34
2022-12-06T16:54:42.968Z,101718.09
2022-12-06T16:57:14.635Z,101713.25
2022-12-06T16:59:42.871Z,101708.28
2022-12-06T17:02:22.244Z,101708.28
2022-12-06T17:04:49.165Z,101708.28
2022-12-06T17:07:15.981Z,101695.94
2022-12-06T17:09:42.706Z,101684.09
2022-12-06T17:12:13.547Z,101682.94
2022-12-06T17:14:40.409Z,101682.41
2022-12-06T17:17:12.701Z,101690.50
2022-12-06T17:19:39.877Z,101694.28
2022-12-06T17:22:07.400Z,101690.50
2022-12-06T17:24:34.282Z,101690.19
2022-12-06T17:27:01.957Z,101693.59
2022-12-06T17:29:29.141Z,101687.22
2022-12-06T17:31:56.496Z,101698.38
2022-12-06T17:34:25.944Z,101698.09
2022-12-06T17:36:53.947Z,101699.91
2022-12-06T17:39:21.686Z,101706.09
2022-12-06T17:42:08.333Z,101698.72
2022-12-06T17:44:35.393Z,101704.69
2022-12-06T17:47:02.772Z,101713.69
2022-12-06T17:49:29.731Z,101711.66
2022-12-06T17:51:57.057Z,101701.16
2022-12-06T17:54:24.022Z,101706.34
2022-12-06T17:56:52.893Z,101705.94
2022-12-06T17:59:25.165Z,101698.34
2022-12-06T18:04:41.474Z,101691.00
2022-12-06T18:07:08.480Z,101703.69
2022-12-06T18:09:35.490Z,101700.72
2022-12-06T18:12:02.678Z,101699.47
2022-12-06T18:14:30.278Z,101713.06
2022-12-06T18:16:57.234Z,101706.06
2022-12-06T18:19:24.331Z,101709.91
2022-12-06T18:21:53.225Z,101714.88
2022-12-06T18:24:23.568Z,101709.41
2022-12-06T18:26:52.031Z,101717.72
2022-12-06T18:29:22.169Z,101722.09
2022-12-06T18:31:50.021Z,101721.28
2022-12-06T18:34:17.856Z,101714.16
2022-12-06T18:36:44.855Z,101718.09
2022-12-06T18:39:15.798Z,101723.34
2022-12-06T18:41:46.190Z,101722.03
2022-12-06T18:44:13.270Z,101730.94
2022-12-06T18:46:42.731Z,101720.31
2022-12-06T18:49:12.288Z,101723.66
2022-12-06T18:51:39.361Z,101725.06
2022-12-06T18:54:07.103Z,101721.16
2022-12-06T18:56:35.563Z,101721.06
2022-12-06T18:59:07.337Z,101715.69
2022-12-06T19:01:36.859Z,101711.19
2022-12-06T19:04:05.700Z,101701.53
2022-12-06T19:06:35.594Z,101705.75
2022-12-06T19:09:07.384Z,101718.91
2022-12-06T19:11:42.406Z,101720.22
2022-12-06T19:14:09.433Z,101714.38
2022-12-06T19:16:37.877Z,101715.13
2022-12-06T19:19:10.114Z,101712.66
2022-12-06T19:21:43.694Z,101705.78
2022-12-06T19:24:12.837Z,101708.47
2022-12-06T19:26:40.290Z,101710.56
2022-12-06T19:29:07.594Z,101707.47
2022-12-06T19:31:35.079Z,101710.00
2022-12-06T19:34:02.324Z,101719.03
2022-12-06T19:36:30.710Z,101705.72
2022-12-06T19:39:03.269Z,101707.13
2022-12-06T19:41:30.765Z,101703.81
2022-12-06T19:44:17.155Z,101707.53
2022-12-06T19:46:45.378Z,101710.00
2022-12-06T19:49:13.633Z,101705.13
2022-12-06T19:51:42.988Z,101713.59
2022-12-06T19:54:13.846Z,101709.25
2022-12-06T19:56:40.869Z,101702.66
2022-12-06T19:59:13.864Z,101702.41
2022-12-06T20:01:45.607Z,101701.84
2022-12-06T20:04:21.594Z,101695.63
2022-12-06T20:06:49.496Z,101687.69
2022-12-06T20:09:17.338Z,101687.56
2022-12-06T20:12:04.484Z,101693.09
2022-12-06T20:14:41.285Z,101684.75
2022-12-06T20:17:15.812Z,101683.13
2022-12-06T20:19:46.062Z,101694.19
2022-12-06T20:22:14.699Z,101698.03
2022-12-06T20:24:42.172Z,101693.31
2022-12-06T20:27:09.356Z,101697.28
2022-12-06T20:29:36.532Z,101697.16
2022-12-06T20:32:04.036Z,101694.19
2022-12-06T20:34:34.488Z,101688.53
2022-12-06T20:37:04.028Z,101684.25
2022-12-06T20:39:32.991Z,101682.69
2022-12-06T20:42:01.121Z,101679.22
2022-12-06T20:44:28.133Z,101683.88
2022-12-06T20:46:55.027Z,101668.81
2022-12-06T20:49:22.056Z,101670.00
2022-12-06T20:51:52.952Z,101673.09
2022-12-06T20:54:21.070Z,101668.81
2022-12-06T20:56:51.754Z,101672.44
2022-12-06T20:59:20.021Z,101670.66
2022-12-06T21:01:47.170Z,101672.56
2022-12-06T21:04:15.133Z,101672.31
2022-12-06T21:06:42.582Z,101671.44
2022-12-06T21:09:09.739Z,101674.34
2022-12-06T21:11:37.710Z,101674.44
2022-12-06T21:14:05.953Z,101669.06
2022-12-06T21:16:34.716Z,101672.50
2022-12-06T21:19:07.103Z,101671.50
2022-12-06T21:21:36.749Z,101677.84
2022-12-06T21:24:11.062Z,101671.81
2022-12-06T21:26:38.210Z,101671.81
2022-12-06T21:29:05.184Z,101669.13
2022-12-06T21:31:38.355Z,101656.72
2022-12-06T21:34:05.813Z,101658.94
2022-12-06T21:36:33.437Z,101661.34
2022-12-06T21:39:00.637Z,101667.63
2022-12-06T21:41:27.740Z,101666.22
2022-12-06T21:43:54.701Z,101665.31
2022-12-06T21:46:24.185Z,101669.72
2022-12-06T21:48:57.064Z,101668.94
2022-12-06T21:51:26.133Z,101669.00
2022-12-06T21:53:53.574Z,101675.03
2022-12-06T21:56:22.987Z,101679.91
2022-12-06T21:58:50.646Z,101668.94
2022-12-06T22:01:24.215Z,101669.69
2022-12-06T22:03:53.448Z,101673.22
2022-12-06T22:06:21.054Z,101689.97
2022-12-06T22:08:48.742Z,101691.44
2022-12-06T22:11:18.543Z,101698.38
2022-12-06T22:13:46.516Z,101690.03
2022-12-06T22:16:14.462Z,101697.44
2022-12-06T22:18:45.325Z,101700.16
2022-12-06T22:21:20.568Z,101694.66
2022-12-06T22:23:48.132Z,101692.34
2022-12-06T22:26:17.647Z,101685.66
2022-12-06T22:28:45.353Z,101697.66
2022-12-06T22:31:17.225Z,101694.47
2022-12-06T22:33:44.541Z,101688.38
2022-12-06T22:36:12.460Z,101690.84
2022-12-06T22:38:39.516Z,101688.56
2022-12-06T22:41:07.107Z,101682.13
2022-12-06T22:43:34.542Z,101690.44
2022-12-06T22:46:11.006Z,101690.09
2022-12-06T22:48:38.830Z,101687.56
2022-12-06T22:51:25.359Z,101683.56
2022-12-06T22:53:58.881Z,101684.41
2022-12-06T22:56:26.488Z,101695.84
2022-12-06T22:58:57.403Z,101696.78
2022-12-06T23:01:26.721Z,101699.59
2022-12-06T23:03:54.708Z,101693.38
2022-12-06T23:06:24.613Z,101685.69
2022-12-06T23:08:51.740Z,101693.06
2022-12-06T23:11:21.713Z,101678.66
2022-12-06T23:13:48.851Z,101688.19
2022-12-06T23:16:19.542Z,101691.19
2022-12-06T23:18:47.151Z,101686.31
2022-12-06T23:21:18.028Z,101682.09
2022-12-06T23:23:50.720Z,101677.00
2022-12-06T23:26:22.866Z,101675.16
2022-12-06T23:28:50.763Z,101673.00
2022-12-06T23:31:23.456Z,101672.28
2022-12-06T23:33:59.597Z,101671.25
2022-12-06T23:36:29.711Z,101676.63
2022-12-06T23:38:56.782Z,101680.59
2022-12-06T23:41:26.210Z,101691.47
2022-12-06T23:43:54.052Z,101694.00
2022-12-06T23:46:23.505Z,101692.22
2022-12-06T23:48:51.681Z,101698.94
2022-12-06T23:51:25.194Z,101696.72
2022-12-06T23:53:56.860Z,101691.75
2022-12-06T23:56:25.084Z,101684.69
2022-12-06T23:58:52.434Z,101664.81
